Time;durP1;ratioP1;P1;durP2;ratioP2;P2;SDS_P1;SDS_P2;PMS_P1;PMS_P2;Temp;Humidity;BMP_temperature;BMP_pressure;BME280_temperature;BME280_humidity;BME280_pressure;Samples;Min_cycle;Max_cycle;Signal;HPM_P1;HPM_P2
2022/02/26 00:02:55;;;;;;;10.23;3.63;;;;;;;;;;6148078;23;20217;-82
2022/02/26 00:06:03;;;;;;;8.40;3.27;;;;;;;;;;6165001;23;20173;-84
2022/02/26 00:09:09;;;;;;;11.10;3.27;;;;;;;;;;6147038;23;20177;-82
2022/02/26 00:12:14;;;;;;;15.70;3.00;;;;;;;;;;6145304;23;20172;-83
2022/02/26 00:15:19;;;;;;;10.43;2.90;;;;;;;;;;6150234;23;20175;-85
2022/02/26 00:18:25;;;;;;;10.10;3.40;;;;;;;;;;6163212;23;20351;-85
2022/02/26 00:21:31;;;;;;;10.77;3.43;;;;;;;;;;6145484;23;20177;-85
2022/02/26 00:24:36;;;;;;;8.63;3.00;;;;;;;;;;6144682;23;20224;-86
2022/02/26 00:27:43;;;;;;;10.03;2.77;;;;;;;;;;6145028;23;20216;-85
2022/02/26 00:30:48;;;;;;;7.73;2.63;;;;;;;;;;6144362;23;20176;-84
2022/02/26 00:33:54;;;;;;;10.50;2.90;;;;;;;;;;6161488;23;20196;-85
2022/02/26 00:37:01;;;;;;;9.90;3.00;;;;;;;;;;6143016;23;20252;-85
2022/02/26 00:40:07;;;;;;;9.43;2.83;;;;;;;;;;6143899;23;20196;-85
2022/02/26 00:43:12;;;;;;;11.37;2.90;;;;;;;;;;6144059;23;20192;-84
2022/02/26 00:46:17;;;;;;;10.47;2.60;;;;;;;;;;6143536;23;20179;-85
2022/02/26 00:52:47;;;;;;;12.60;2.80;;;;;;;;;;6161315;23;20200;-85
2022/02/26 00:55:52;;;;;;;9.53;2.80;;;;;;;;;;6143479;23;20172;-85
2022/02/26 00:58:56;;;;;;;10.17;3.17;;;;;;;;;;6144332;23;20443;-84
2022/02/26 01:02:04;;;;;;;9.83;3.10;;;;;;;;;;6143608;23;20289;-86
2022/02/26 01:05:10;;;;;;;10.27;3.00;;;;;;;;;;6143405;23;20419;-85
2022/02/26 01:08:19;;;;;;;8.43;3.03;;;;;;;;;;6143744;23;20576;-85
2022/02/26 01:11:24;;;;;;;8.73;3.27;;;;;;;;;;6143529;23;20219;-85
2022/02/26 01:14:29;;;;;;;8.20;3.00;;;;;;;;;;6143538;23;20220;-84
2022/02/26 01:17:34;;;;;;;6.17;3.00;;;;;;;;;;6160295;23;20549;-85
2022/02/26 01:20:40;;;;;;;10.07;3.13;;;;;;;;;;6168888;23;20514;-85
2022/02/26 01:23:48;;;;;;;16.80;3.80;;;;;;;;;;6144449;23;20176;-84
2022/02/26 01:26:58;;;;;;;8.50;2.93;;;;;;;;;;6161556;23;20177;-86
2022/02/26 01:30:03;;;;;;;9.20;3.30;;;;;;;;;;6161983;23;20168;-85
2022/02/26 01:33:08;;;;;;;9.97;3.50;;;;;;;;;;6143748;23;20180;-85
2022/02/26 01:36:13;;;;;;;11.87;3.30;;;;;;;;;;6143455;23;20494;-86
2022/02/26 01:39:24;;;;;;;12.87;3.90;;;;;;;;;;6161782;23;20311;-84
2022/02/26 01:42:30;;;;;;;9.13;3.33;;;;;;;;;;6161211;23;20176;-85
2022/02/26 01:45:36;;;;;;;11.87;3.77;;;;;;;;;;6143554;23;20176;-86
2022/02/26 01:48:42;;;;;;;7.00;3.43;;;;;;;;;;6143839;23;20177;-85
2022/02/26 01:51:47;;;;;;;9.83;4.47;;;;;;;;;;6143164;23;20240;-85
2022/02/26 01:54:56;;;;;;;10.97;3.50;;;;;;;;;;6143140;23;20172;-84
2022/02/26 01:58:02;;;;;;;10.13;3.77;;;;;;;;;;6143257;23;20541;-85
2022/02/26 02:01:08;;;;;;;8.30;3.90;;;;;;;;;;6162109;23;20169;-85
2022/02/26 02:04:17;;;;;;;8.13;3.87;;;;;;;;;;6143273;23;20212;-86
2022/02/26 02:07:23;;;;;;;9.57;3.93;;;;;;;;;;6143378;23;20444;-86
2022/02/26 02:10:40;;;;;;;10.27;3.67;;;;;;;;;;6160290;23;20173;-85
2022/02/26 02:13:45;;;;;;;9.13;3.70;;;;;;;;;;6161093;23;20196;-86
2022/02/26 02:16:50;;;;;;;9.43;3.77;;;;;;;;;;6160074;23;20208;-86
2022/02/26 02:19:55;;;;;;;9.60;3.57;;;;;;;;;;6143262;23;20228;-87
2022/02/26 02:23:02;;;;;;;13.47;3.70;;;;;;;;;;6143027;23;20251;-86
2022/02/26 02:26:08;;;;;;;9.77;3.83;;;;;;;;;;6159581;23;20196;-85
2022/02/26 02:29:13;;;;;;;9.20;3.57;;;;;;;;;;6160606;23;20174;-87
2022/02/26 02:32:19;;;;;;;7.80;3.67;;;;;;;;;;6142506;23;20285;-86
2022/02/26 02:35:25;;;;;;;10.73;3.47;;;;;;;;;;6142157;23;20177;-86
2022/02/26 02:38:31;;;;;;;9.87;3.60;;;;;;;;;;6160115;23;20382;-85
2022/02/26 02:41:37;;;;;;;7.83;3.23;;;;;;;;;;6143174;23;20261;-85
2022/02/26 02:44:43;;;;;;;10.47;3.33;;;;;;;;;;6142833;23;20227;-84
2022/02/26 02:47:49;;;;;;;11.60;3.47;;;;;;;;;;6160332;23;20168;-85
2022/02/26 02:50:54;;;;;;;9.67;4.07;;;;;;;;;;6160118;23;20168;-85
2022/02/26 02:54:01;;;;;;;15.17;3.83;;;;;;;;;;6147559;23;20225;-85
2022/02/26 02:57:07;;;;;;;11.20;3.90;;;;;;;;;;6131091;23;20426;-85
2022/02/26 03:00:14;;;;;;;9.93;3.93;;;;;;;;;;6142210;23;20234;-85
2022/02/26 03:03:19;;;;;;;8.73;3.47;;;;;;;;;;6151251;23;20182;-85
2022/02/26 03:06:25;;;;;;;12.10;3.73;;;;;;;;;;6150326;23;20463;-86
2022/02/26 03:09:32;;;;;;;8.43;3.67;;;;;;;;;;6142757;23;20205;-85
2022/02/26 03:12:38;;;;;;;8.13;4.03;;;;;;;;;;6140916;23;20168;-85
2022/02/26 03:15:44;;;;;;;7.50;3.67;;;;;;;;;;6130858;23;20212;-85
2022/02/26 03:18:49;;;;;;;6.27;3.87;;;;;;;;;;6130708;23;20488;-85
2022/02/26 03:21:54;;;;;;;10.33;4.23;;;;;;;;;;6130364;23;20173;-84
2022/02/26 03:25:01;;;;;;;11.27;3.90;;;;;;;;;;6129888;23;20177;-84
2022/02/26 03:28:06;;;;;;;10.17;4.07;;;;;;;;;;6130053;23;20173;-84
2022/02/26 03:31:12;;;;;;;10.00;3.40;;;;;;;;;;6139017;23;20169;-83
2022/02/26 03:34:17;;;;;;;19.43;8.10;;;;;;;;;;6146189;23;20174;-84
2022/02/26 03:37:22;;;;;;;11.70;4.37;;;;;;;;;;6146415;23;20207;-86
2022/02/26 03:40:29;;;;;;;10.93;4.27;;;;;;;;;;6146292;23;20209;-85
2022/02/26 03:43:34;;;;;;;8.47;4.00;;;;;;;;;;6133772;23;20185;-85
2022/02/26 03:46:39;;;;;;;9.97;4.03;;;;;;;;;;6129828;23;20218;-84
2022/02/26 03:49:44;;;;;;;10.47;4.10;;;;;;;;;;6131568;23;20245;-84
2022/02/26 03:52:52;;;;;;;11.17;4.07;;;;;;;;;;6138043;23;20192;-84
2022/02/26 03:55:59;;;;;;;8.33;3.97;;;;;;;;;;6162781;23;20525;-84
2022/02/26 03:59:05;;;;;;;9.20;4.53;;;;;;;;;;6146777;23;20525;-85
2022/02/26 04:02:10;;;;;;;8.30;4.10;;;;;;;;;;6153477;23;20228;-86
2022/02/26 04:05:16;;;;;;;11.03;4.20;;;;;;;;;;6146717;23;20240;-86
2022/02/26 04:08:21;;;;;;;12.87;4.73;;;;;;;;;;6144406;23;20617;-86
2022/02/26 04:11:27;;;;;;;12.40;4.20;;;;;;;;;;6165779;23;20167;-87
2022/02/26 04:14:32;;;;;;;14.00;4.60;;;;;;;;;;6150750;23;20184;-84
2022/02/26 04:17:37;;;;;;;12.53;4.40;;;;;;;;;;6151524;23;20280;-84
2022/02/26 04:20:43;;;;;;;9.73;4.63;;;;;;;;;;6158512;23;20212;-85
2022/02/26 04:23:48;;;;;;;8.13;3.93;;;;;;;;;;6174411;23;20176;-84
2022/02/26 04:26:55;;;;;;;9.27;3.93;;;;;;;;;;6157703;23;20216;-84
2022/02/26 04:30:00;;;;;;;8.87;4.23;;;;;;;;;;6156916;23;20228;-84
2022/02/26 04:33:06;;;;;;;8.13;3.77;;;;;;;;;;6157768;23;20193;-85
2022/02/26 04:36:12;;;;;;;9.23;4.10;;;;;;;;;;6174138;23;20189;-86
2022/02/26 04:39:18;;;;;;;8.33;3.80;;;;;;;;;;6155288;23;20204;-86
2022/02/26 04:42:26;;;;;;;8.63;3.70;;;;;;;;;;6154597;23;20180;-85
2022/02/26 04:45:31;;;;;;;12.50;3.83;;;;;;;;;;6155399;23;20172;-84
2022/02/26 04:48:37;;;;;;;7.13;4.00;;;;;;;;;;6174622;23;20163;-84
2022/02/26 04:51:43;;;;;;;8.50;4.00;;;;;;;;;;6162769;23;20172;-85
2022/02/26 04:54:48;;;;;;;9.03;4.27;;;;;;;;;;6134123;23;20234;-86
2022/02/26 04:57:55;;;;;;;8.47;3.57;;;;;;;;;;6151658;23;20179;-85
2022/02/26 05:01:01;;;;;;;10.10;4.20;;;;;;;;;;6132729;23;20613;-85
2022/02/26 05:04:07;;;;;;;6.33;4.03;;;;;;;;;;6138849;23;20185;-86
2022/02/26 05:07:15;;;;;;;8.67;4.17;;;;;;;;;;6113974;23;20455;-86
2022/02/26 05:10:21;;;;;;;10.43;3.97;;;;;;;;;;6131537;23;20421;-85
2022/02/26 05:13:28;;;;;;;10.30;3.63;;;;;;;;;;6113874;23;20177;-84
2022/02/26 05:16:33;;;;;;;9.47;3.73;;;;;;;;;;6131322;23;20561;-84
2022/02/26 05:19:38;;;;;;;13.40;4.73;;;;;;;;;;6113756;23;20280;-85
2022/02/26 05:22:44;;;;;;;13.57;4.33;;;;;;;;;;6113982;23;20229;-86
2022/02/26 05:25:49;;;;;;;13.10;3.73;;;;;;;;;;6113783;23;20185;-84
2022/02/26 05:28:56;;;;;;;12.50;4.37;;;;;;;;;;6113727;23;20177;-85
2022/02/26 05:32:01;;;;;;;10.30;4.00;;;;;;;;;;6114074;23;20169;-85
2022/02/26 05:35:07;;;;;;;8.27;4.13;;;;;;;;;;6131934;23;20181;-85
2022/02/26 05:38:15;;;;;;;7.60;3.70;;;;;;;;;;6113831;23;20546;-85
2022/02/26 05:41:21;;;;;;;10.83;4.50;;;;;;;;;;6114572;23;20197;-86
2022/02/26 05:44:28;;;;;;;9.40;4.13;;;;;;;;;;6114080;23;20294;-85
2022/02/26 05:47:33;;;;;;;7.87;3.90;;;;;;;;;;6114083;23;20177;-85
2022/02/26 05:50:38;;;;;;;9.77;4.23;;;;;;;;;;6114358;23;20281;-85
2022/02/26 05:53:43;;;;;;;11.20;5.07;;;;;;;;;;6148135;23;20436;-84
2022/02/26 05:56:48;;;;;;;13.57;5.40;;;;;;;;;;6143233;23;20173;-85
2022/02/26 05:59:55;;;;;;;13.40;4.40;;;;;;;;;;6143694;23;20195;-86
2022/02/26 06:03:02;;;;;;;15.53;5.47;;;;;;;;;;6143645;23;20173;-85
2022/02/26 06:06:07;;;;;;;12.37;5.20;;;;;;;;;;6143287;23;20300;-85
2022/02/26 06:09:12;;;;;;;12.47;4.83;;;;;;;;;;6143295;23;20180;-86
2022/02/26 06:12:18;;;;;;;10.87;5.07;;;;;;;;;;6142563;23;20189;-86
2022/02/26 06:15:25;;;;;;;9.77;4.77;;;;;;;;;;6141750;23;20434;-87
2022/02/26 06:18:30;;;;;;;16.77;5.80;;;;;;;;;;6142710;23;20188;-85
2022/02/26 06:21:39;;;;;;;12.43;5.33;;;;;;;;;;6142831;23;20216;-86
2022/02/26 06:24:44;;;;;;;9.17;4.87;;;;;;;;;;6143791;23;20177;-85
2022/02/26 06:27:50;;;;;;;12.50;4.60;;;;;;;;;;6143843;23;20177;-86
2022/02/26 06:30:57;;;;;;;20.30;5.70;;;;;;;;;;6146411;23;20384;-86
2022/02/26 06:34:02;;;;;;;36.80;5.13;;;;;;;;;;6146928;23;20341;-85
2022/02/26 06:37:08;;;;;;;9.70;4.53;;;;;;;;;;6141804;23;20277;-86
2022/02/26 06:40:13;;;;;;;12.60;5.30;;;;;;;;;;6142684;23;20197;-85
2022/02/26 06:43:18;;;;;;;10.30;5.23;;;;;;;;;;6154434;23;20638;-86
2022/02/26 06:46:25;;;;;;;16.27;5.13;;;;;;;;;;6142996;23;20642;-86
2022/02/26 06:49:30;;;;;;;9.20;4.50;;;;;;;;;;6150225;23;20165;-86
2022/02/26 06:52:35;;;;;;;16.53;6.63;;;;;;;;;;6155529;23;20180;-86
2022/02/26 06:55:40;;;;;;;12.50;5.40;;;;;;;;;;6141642;23;20188;-86
2022/02/26 06:58:46;;;;;;;12.47;5.47;;;;;;;;;;6142330;23;20229;-86
2022/02/26 07:01:53;;;;;;;11.43;4.40;;;;;;;;;;6160039;23;20196;-85
2022/02/26 07:04:58;;;;;;;11.23;4.73;;;;;;;;;;6141973;23;20173;-86
2022/02/26 07:08:04;;;;;;;11.27;4.63;;;;;;;;;;6142139;23;20178;-86
2022/02/26 07:11:10;;;;;;;15.60;5.00;;;;;;;;;;6160267;23;20525;-86
2022/02/26 07:14:16;;;;;;;11.67;4.90;;;;;;;;;;6142104;23;20195;-86
2022/02/26 07:17:23;;;;;;;14.87;4.63;;;;;;;;;;6142418;23;20193;-86
2022/02/26 07:20:28;;;;;;;13.03;5.13;;;;;;;;;;6142091;23;20565;-86
2022/02/26 07:23:34;;;;;;;10.87;4.33;;;;;;;;;;6160480;23;20176;-87
2022/02/26 07:26:39;;;;;;;13.93;5.10;;;;;;;;;;6164358;23;20509;-87
2022/02/26 07:29:44;;;;;;;14.50;5.50;;;;;;;;;;6149123;23;20219;-87
2022/02/26 07:32:59;;;;;;;13.33;5.07;;;;;;;;;;6166132;23;20172;-86
2022/02/26 07:36:05;;;;;;;15.67;4.27;;;;;;;;;;6158365;23;20176;-87
2022/02/26 07:39:11;;;;;;;13.03;5.03;;;;;;;;;;6145918;23;20216;-87
2022/02/26 07:42:17;;;;;;;16.30;5.27;;;;;;;;;;6146498;23;20406;-86
2022/02/26 07:45:23;;;;;;;15.07;4.63;;;;;;;;;;6145277;23;20199;-87
2022/02/26 07:48:30;;;;;;;13.10;4.47;;;;;;;;;;6146039;23;20219;-86
2022/02/26 07:51:35;;;;;;;10.43;4.33;;;;;;;;;;6145769;23;20225;-86
2022/02/26 07:54:40;;;;;;;9.77;3.70;;;;;;;;;;6133387;23;20188;-86
2022/02/26 07:57:45;;;;;;;13.63;3.87;;;;;;;;;;6134791;23;20264;-87
2022/02/26 08:00:56;;;;;;;14.87;4.40;;;;;;;;;;6133608;23;20240;-86
2022/02/26 08:04:04;;;;;;;8.27;4.23;;;;;;;;;;6133877;23;20248;-86
2022/02/26 08:07:10;;;;;;;12.43;4.00;;;;;;;;;;6133162;23;20249;-87
2022/02/26 08:10:15;;;;;;;16.60;4.03;;;;;;;;;;6133948;23;20177;-85
2022/02/26 08:13:20;;;;;;;13.07;4.90;;;;;;;;;;6143734;23;20184;-86
2022/02/26 08:16:25;;;;;;;10.87;4.17;;;;;;;;;;6133180;23;20238;-87
2022/02/26 08:19:32;;;;;;;13.30;4.30;;;;;;;;;;6139095;23;20177;-87
2022/02/26 08:22:37;;;;;;;13.07;4.63;;;;;;;;;;6133751;23;20244;-87
2022/02/26 08:25:42;;;;;;;28.33;10.03;;;;;;;;;;6132537;23;20228;-87
2022/02/26 08:28:48;;;;;;;14.73;5.63;;;;;;;;;;6142031;23;20213;-87
2022/02/26 08:31:53;;;;;;;12.77;4.37;;;;;;;;;;6149230;23;20176;-85
2022/02/26 08:35:01;;;;;;;14.43;4.20;;;;;;;;;;6147426;23;20174;-85
2022/02/26 08:38:06;;;;;;;14.40;4.80;;;;;;;;;;6135958;23;20343;-87
2022/02/26 08:41:12;;;;;;;11.13;3.70;;;;;;;;;;6132429;23;20520;-86
2022/02/26 08:44:17;;;;;;;11.00;4.10;;;;;;;;;;6132545;23;20245;-86
2022/02/26 08:47:23;;;;;;;8.87;4.07;;;;;;;;;;6133424;23;20188;-87
2022/02/26 08:50:30;;;;;;;12.03;4.20;;;;;;;;;;6132741;23;20410;-87
2022/02/26 08:53:35;;;;;;;26.63;11.07;;;;;;;;;;6133043;23;20196;-88
2022/02/26 08:56:43;;;;;;;11.97;4.73;;;;;;;;;;6132645;23;20405;-87
2022/02/26 08:59:49;;;;;;;11.57;3.23;;;;;;;;;;6132188;23;20189;-87
2022/02/26 09:02:55;;;;;;;11.43;4.30;;;;;;;;;;6132894;23;20185;-88
2022/02/26 09:06:03;;;;;;;9.20;3.67;;;;;;;;;;6131715;23;20305;-86
2022/02/26 09:09:09;;;;;;;11.00;3.97;;;;;;;;;;6131531;23;20189;-86
2022/02/26 09:12:13;;;;;;;10.73;3.70;;;;;;;;;;6133159;23;20180;-88
2022/02/26 09:15:19;;;;;;;10.80;3.67;;;;;;;;;;6131344;23;20256;-86
2022/02/26 09:18:24;;;;;;;13.10;3.63;;;;;;;;;;6136509;23;20181;-87
2022/02/26 09:21:32;;;;;;;8.80;3.43;;;;;;;;;;6135298;23;20200;-87
2022/02/26 09:24:38;;;;;;;11.83;3.90;;;;;;;;;;6133280;23;20174;-87
2022/02/26 09:27:44;;;;;;;11.23;3.70;;;;;;;;;;6132826;23;20180;-87
2022/02/26 09:30:50;;;;;;;13.18;3.45;;;;;;;;;;6135549;23;20173;-87
2022/02/26 09:33:57;;;;;;;9.35;3.25;;;;;;;;;;6149041;23;20184;-86
2022/02/26 09:37:10;;;;;;;9.13;2.80;;;;;;;;;;6148651;23;20204;-87
2022/02/26 09:40:17;;;;;;;15.63;2.13;;;;;;;;;;6148989;23;20186;-87
2022/02/26 09:43:22;;;;;;;8.30;2.37;;;;;;;;;;6147069;23;20169;-88
2022/02/26 09:46:28;;;;;;;3.63;1.80;;;;;;;;;;6149020;23;20294;-86
2022/02/26 09:49:33;;;;;;;16.33;3.03;;;;;;;;;;6150295;23;20181;-87
2022/02/26 09:52:42;;;;;;;9.90;3.00;;;;;;;;;;6152557;23;20231;-86
2022/02/26 09:55:48;;;;;;;15.47;4.30;;;;;;;;;;6158768;23;20179;-88
2022/02/26 09:58:53;;;;;;;10.13;3.10;;;;;;;;;;6159895;23;20177;-87
2022/02/26 10:02:00;;;;;;;9.90;2.70;;;;;;;;;;6176767;23;20205;-86
2022/02/26 10:05:09;;;;;;;14.50;3.35;;;;;;;;;;6159162;23;20164;-88
2022/02/26 10:08:21;;;;;;;8.43;2.70;;;;;;;;;;6156423;23;20172;-87
2022/02/26 10:11:27;;;;;;;15.87;3.07;;;;;;;;;;6150753;23;20173;-88
2022/02/26 10:14:36;;;;;;;5.30;2.00;;;;;;;;;;6168361;23;20188;-86
2022/02/26 10:17:41;;;;;;;6.93;1.93;;;;;;;;;;6151918;23;20175;-87
2022/02/26 10:20:48;;;;;;;10.07;1.80;;;;;;;;;;6153623;23;20328;-86
2022/02/26 10:23:56;;;;;;;5.70;1.60;;;;;;;;;;6154003;23;20169;-87
2022/02/26 10:27:05;;;;;;;5.93;1.90;;;;;;;;;;6156965;23;20538;-86
2022/02/26 10:30:14;;;;;;;7.67;1.90;;;;;;;;;;6161017;23;20169;-86
2022/02/26 10:33:23;;;;;;;7.97;2.40;;;;;;;;;;6173728;23;20226;-87
2022/02/26 10:36:29;;;;;;;7.27;2.23;;;;;;;;;;6169959;23;20196;-86
2022/02/26 10:39:38;;;;;;;12.23;2.23;;;;;;;;;;6160066;23;20204;-86
2022/02/26 10:42:47;;;;;;;10.57;2.30;;;;;;;;;;6162670;23;20244;-86
2022/02/26 10:46:14;;;;;;;14.13;3.07;;;;;;;;;;6163427;23;20206;-86
2022/02/26 10:49:20;;;;;;;10.83;2.97;;;;;;;;;;6149767;23;20177;-86
2022/02/26 10:52:30;;;;;;;13.27;2.53;;;;;;;;;;6161558;23;20200;-86
2022/02/26 10:55:57;;;;;;;10.40;2.60;;;;;;;;;;6178419;23;20172;-88
2022/02/26 10:59:04;;;;;;;9.77;2.90;;;;;;;;;;6159866;23;20221;-87
2022/02/26 11:02:15;;;;;;;6.90;2.10;;;;;;;;;;6158036;23;20200;-86
2022/02/26 11:05:20;;;;;;;10.03;2.40;;;;;;;;;;6150851;23;20526;-86
2022/02/26 11:08:26;;;;;;;8.40;3.37;;;;;;;;;;6150634;23;20173;-88
2022/02/26 11:11:33;;;;;;;12.00;3.00;;;;;;;;;;6151966;23;20169;-86
2022/02/26 11:14:44;;;;;;;18.33;4.17;;;;;;;;;;6152471;23;20205;-85
2022/02/26 11:17:52;;;;;;;16.47;4.47;;;;;;;;;;6152064;23;20189;-85
2022/02/26 11:20:58;;;;;;;7.77;2.23;;;;;;;;;;6153225;23;20176;-86
2022/02/26 11:24:06;;;;;;;10.13;2.10;;;;;;;;;;6152505;23;20240;-86
2022/02/26 11:27:14;;;;;;;8.47;2.13;;;;;;;;;;6152668;23;20180;-84
2022/02/26 11:30:21;;;;;;;7.30;1.90;;;;;;;;;;6166604;23;20192;-87
2022/02/26 11:33:27;;;;;;;8.97;1.70;;;;;;;;;;6167173;23;20276;-85
2022/02/26 11:36:47;;;;;;;8.50;2.00;;;;;;;;;;6147365;23;20314;-86
2022/02/26 11:39:55;;;;;;;8.00;1.80;;;;;;;;;;6156135;23;20308;-88
2022/02/26 11:43:05;;;;;;;6.67;1.63;;;;;;;;;;6158281;23;20255;-85
2022/02/26 11:46:25;;;;;;;4.67;1.57;;;;;;;;;;6175362;23;20177;-85
2022/02/26 11:49:32;;;;;;;15.82;1.95;;;;;;;;;;6149362;23;20220;-87
2022/02/26 11:52:37;;;;;;;10.50;2.95;;;;;;;;;;6144691;23;20189;-87
2022/02/26 11:55:44;;;;;;;3.38;1.20;;;;;;;;;;6145288;23;20172;-88
2022/02/26 11:58:53;;;;;;;7.95;1.60;;;;;;;;;;6144269;23;20173;-87
2022/02/26 12:02:06;;;;;;;6.50;1.40;;;;;;;;;;6145096;23;20200;-87
2022/02/26 12:05:11;;;;;;;9.55;2.40;;;;;;;;;;6160651;23;20332;-87
2022/02/26 12:08:19;;;;;;;6.43;1.50;;;;;;;;;;6162808;23;20184;-86
2022/02/26 12:11:27;;;;;;;4.28;1.33;;;;;;;;;;6146164;23;20176;-87
2022/02/26 12:14:34;;;;;;;8.13;1.27;;;;;;;;;;6162650;23;20248;-86
2022/02/26 12:17:44;;;;;;;10.70;1.55;;;;;;;;;;6145133;23;20408;-86
2022/02/26 12:20:59;;;;;;;8.35;1.80;;;;;;;;;;6162644;23;20185;-86
2022/02/26 12:24:14;;;;;;;3.78;1.40;;;;;;;;;;6145722;23;20172;-87
2022/02/26 12:27:31;;;;;;;6.38;1.50;;;;;;;;;;6144997;23;20229;-87
2022/02/26 12:30:52;;;;;;;11.02;2.08;;;;;;;;;;6161628;23;20247;-87
2022/02/26 12:33:57;;;;;;;7.93;2.05;;;;;;;;;;6144182;23;20240;-85
2022/02/26 12:37:18;;;;;;;7.18;1.85;;;;;;;;;;6143749;23;20580;-86
2022/02/26 12:40:29;;;;;;;4.53;1.45;;;;;;;;;;6144173;23;20639;-86
2022/02/26 12:43:34;;;;;;;8.65;1.40;;;;;;;;;;6161192;23;20248;-86
2022/02/26 12:46:40;;;;;;;11.88;1.67;;;;;;;;;;6143161;23;20525;-87
2022/02/26 12:49:46;;;;;;;4.75;1.17;;;;;;;;;;6144386;23;20185;-86
2022/02/26 12:52:52;;;;;;;15.52;1.83;;;;;;;;;;6160524;23;20236;-86
2022/02/26 12:55:57;;;;;;;7.20;1.75;;;;;;;;;;6160314;23;20172;-86
2022/02/26 12:59:09;;;;;;;10.10;1.30;;;;;;;;;;6143657;23;20173;-85
2022/02/26 13:02:16;;;;;;;7.97;1.87;;;;;;;;;;6143743;23;20239;-86
2022/02/26 13:05:25;;;;;;;9.33;1.67;;;;;;;;;;6161568;23;20177;-86
2022/02/26 13:08:31;;;;;;;8.27;1.60;;;;;;;;;;6143880;23;20240;-86
2022/02/26 13:11:36;;;;;;;8.40;1.95;;;;;;;;;;6171223;23;20541;-86
2022/02/26 13:14:41;;;;;;;6.57;1.55;;;;;;;;;;6142959;23;20617;-87
2022/02/26 13:17:48;;;;;;;9.35;1.63;;;;;;;;;;6144148;23;20202;-86
2022/02/26 13:20:53;;;;;;;8.60;1.85;;;;;;;;;;6143480;23;20223;-87
2022/02/26 13:23:59;;;;;;;7.73;1.80;;;;;;;;;;6143137;23;20172;-88
2022/02/26 13:27:04;;;;;;;8.68;1.40;;;;;;;;;;6143603;23;20176;-87
2022/02/26 13:30:10;;;;;;;13.77;1.98;;;;;;;;;;6143562;23;20296;-86
2022/02/26 13:33:20;;;;;;;10.88;1.75;;;;;;;;;;6144143;23;20237;-88
2022/02/26 13:36:25;;;;;;;6.57;1.90;;;;;;;;;;6144611;23;20196;-87
2022/02/26 13:39:31;;;;;;;5.93;1.30;;;;;;;;;;6142890;23;20219;-88
2022/02/26 13:42:37;;;;;;;5.47;1.63;;;;;;;;;;6160118;23;20205;-87
2022/02/26 13:45:54;;;;;;;4.45;1.38;;;;;;;;;;6142349;23;20292;-86
2022/02/26 13:49:04;;;;;;;8.20;1.38;;;;;;;;;;6143322;23;20176;-87
2022/02/26 13:52:10;;;;;;;6.30;1.77;;;;;;;;;;6160809;23;20188;-87
2022/02/26 13:55:17;;;;;;;9.07;1.80;;;;;;;;;;6142550;23;20177;-86
2022/02/26 13:58:27;;;;;;;6.85;1.33;;;;;;;;;;6143468;23;20249;-87
2022/02/26 14:01:33;;;;;;;7.43;1.50;;;;;;;;;;6145022;23;20266;-87
2022/02/26 14:04:59;;;;;;;5.97;1.20;;;;;;;;;;6144079;23;20211;-87
2022/02/26 14:08:06;;;;;;;8.20;2.20;;;;;;;;;;6144376;23;20176;-87
2022/02/26 14:11:13;;;;;;;12.43;2.40;;;;;;;;;;6144322;23;20185;-87
2022/02/26 14:14:28;;;;;;;17.97;3.07;;;;;;;;;;6144462;23;20200;-87
2022/02/26 14:17:33;;;;;;;15.47;3.53;;;;;;;;;;6147168;23;20173;-88
2022/02/26 14:20:40;;;;;;;12.03;3.13;;;;;;;;;;6147907;23;20285;-87
2022/02/26 14:23:47;;;;;;;16.67;4.47;;;;;;;;;;6165755;23;20255;-88
2022/02/26 14:26:59;;;;;;;16.23;3.40;;;;;;;;;;6173411;23;20175;-86
2022/02/26 14:30:06;;;;;;;10.93;2.20;;;;;;;;;;6145504;23;20231;-87
2022/02/26 14:33:12;;;;;;;5.27;1.60;;;;;;;;;;6145904;23;20173;-86
2022/02/26 14:36:20;;;;;;;6.47;1.83;;;;;;;;;;6145717;23;20180;-86
2022/02/26 14:39:26;;;;;;;7.23;1.40;;;;;;;;;;6163665;23;20517;-86
2022/02/26 14:42:32;;;;;;;6.93;1.40;;;;;;;;;;6163163;23;20196;-86
2022/02/26 14:45:38;;;;;;;6.60;1.43;;;;;;;;;;6143104;23;20177;-87
2022/02/26 14:48:47;;;;;;;7.40;1.70;;;;;;;;;;6144222;23;20397;-86
2022/02/26 14:51:54;;;;;;;3.73;1.23;;;;;;;;;;6146599;23;20172;-87
2022/02/26 14:54:59;;;;;;;8.43;1.47;;;;;;;;;;6144011;23;20243;-87
2022/02/26 14:58:05;;;;;;;5.57;1.77;;;;;;;;;;6143687;23;20319;-87
2022/02/26 15:01:10;;;;;;;4.93;1.27;;;;;;;;;;6144456;23;20295;-86
2022/02/26 15:04:16;;;;;;;7.87;1.50;;;;;;;;;;6161388;23;20172;-88
2022/02/26 15:07:25;;;;;;;7.17;1.60;;;;;;;;;;6144603;23;20256;-87
2022/02/26 15:10:30;;;;;;;6.07;1.80;;;;;;;;;;6144701;23;20181;-86
2022/02/26 15:13:36;;;;;;;8.10;1.60;;;;;;;;;;6143557;23;20172;-86
2022/02/26 15:16:43;;;;;;;5.30;1.53;;;;;;;;;;6142517;23;20169;-87
2022/02/26 15:19:48;;;;;;;8.13;1.60;;;;;;;;;;6160743;23;20171;-87
2022/02/26 15:22:55;;;;;;;12.93;1.90;;;;;;;;;;6142703;23;20196;-87
2022/02/26 15:26:01;;;;;;;3.37;1.20;;;;;;;;;;6142716;23;20184;-87
2022/02/26 15:29:06;;;;;;;10.70;1.90;;;;;;;;;;6143706;23;20180;-87
2022/02/26 15:32:12;;;;;;;4.97;1.70;;;;;;;;;;6144298;23;20180;-88
2022/02/26 15:35:18;;;;;;;6.23;1.63;;;;;;;;;;6143212;23;20188;-87
2022/02/26 15:38:25;;;;;;;12.53;2.00;;;;;;;;;;6143249;23;20203;-86
2022/02/26 15:41:31;;;;;;;12.70;2.07;;;;;;;;;;6144804;23;20172;-87
2022/02/26 15:44:36;;;;;;;10.80;2.40;;;;;;;;;;6143811;23;20180;-86
2022/02/26 15:47:42;;;;;;;8.00;1.50;;;;;;;;;;6163324;23;20185;-87
2022/02/26 15:50:47;;;;;;;8.23;1.90;;;;;;;;;;6169148;23;20435;-88
2022/02/26 15:53:55;;;;;;;9.80;2.30;;;;;;;;;;6140353;23;20537;-88
2022/02/26 15:57:01;;;;;;;6.27;1.97;;;;;;;;;;6131641;23;20205;-88
2022/02/26 16:00:07;;;;;;;10.80;1.90;;;;;;;;;;6132350;23;20205;-87
2022/02/26 16:03:17;;;;;;;9.27;2.30;;;;;;;;;;6133640;23;20269;-88
2022/02/26 16:06:23;;;;;;;3.80;1.63;;;;;;;;;;6131380;23;20297;-87
2022/02/26 16:09:30;;;;;;;4.50;1.70;;;;;;;;;;6133271;23;20285;-87
2022/02/26 16:12:35;;;;;;;7.57;1.70;;;;;;;;;;6132120;23;20221;-86
2022/02/26 16:15:40;;;;;;;8.43;2.23;;;;;;;;;;6130810;23;20221;-86
2022/02/26 16:18:46;;;;;;;8.67;2.17;;;;;;;;;;6133118;23;20225;-86
2022/02/26 16:21:51;;;;;;;13.90;2.13;;;;;;;;;;6133380;23;20560;-87
2022/02/26 16:24:58;;;;;;;10.90;1.93;;;;;;;;;;6131401;23;20165;-86
2022/02/26 16:28:03;;;;;;;8.87;2.73;;;;;;;;;;6131852;23;20177;-86
2022/02/26 16:31:08;;;;;;;11.60;3.10;;;;;;;;;;6131255;23;20248;-86
2022/02/26 16:34:14;;;;;;;8.03;2.10;;;;;;;;;;6132311;23;20173;-86
2022/02/26 16:37:19;;;;;;;11.63;2.30;;;;;;;;;;6142465;23;20246;-86
2022/02/26 16:40:26;;;;;;;10.43;2.13;;;;;;;;;;6150871;23;20221;-85
2022/02/26 16:43:32;;;;;;;8.90;2.10;;;;;;;;;;6153855;23;20795;-87
2022/02/26 16:46:37;;;;;;;12.80;2.67;;;;;;;;;;6131842;23;20526;-86
2022/02/26 16:49:42;;;;;;;16.67;3.17;;;;;;;;;;6137866;23;20184;-86
2022/02/26 16:52:50;;;;;;;12.60;2.57;;;;;;;;;;6144272;23;20187;-87
2022/02/26 16:55:56;;;;;;;11.27;2.87;;;;;;;;;;6167505;23;20449;-87
2022/02/26 16:59:01;;;;;;;17.70;3.80;;;;;;;;;;6147099;23;20272;-86
2022/02/26 17:02:07;;;;;;;10.70;2.73;;;;;;;;;;6146365;23;20173;-87
2022/02/26 17:05:17;;;;;;;9.73;2.13;;;;;;;;;;6145611;23;20188;-86
2022/02/26 17:08:23;;;;;;;7.67;1.80;;;;;;;;;;6145201;23;20180;-87
2022/02/26 17:11:29;;;;;;;7.70;2.30;;;;;;;;;;6145547;23;20173;-87
2022/02/26 17:14:35;;;;;;;10.40;2.80;;;;;;;;;;6164449;23;20204;-86
2022/02/26 17:17:40;;;;;;;7.47;2.40;;;;;;;;;;6144086;23;20361;-87
2022/02/26 17:20:45;;;;;;;12.63;2.30;;;;;;;;;;6145668;23;20263;-88
2022/02/26 17:23:50;;;;;;;15.97;3.43;;;;;;;;;;6145255;23;20235;-87
2022/02/26 17:26:56;;;;;;;11.23;2.70;;;;;;;;;;6143033;23;20297;-88
2022/02/26 17:30:02;;;;;;;13.17;2.83;;;;;;;;;;6143779;23;20515;-88
2022/02/26 17:33:08;;;;;;;11.20;2.70;;;;;;;;;;6144254;23;20184;-88
2022/02/26 17:36:13;;;;;;;5.40;2.00;;;;;;;;;;6143188;23;20181;-88
2022/02/26 17:39:23;;;;;;;11.57;2.83;;;;;;;;;;6144515;23;20545;-89
2022/02/26 17:42:29;;;;;;;12.17;2.70;;;;;;;;;;6143740;23;20176;-88
2022/02/26 17:45:37;;;;;;;9.90;2.60;;;;;;;;;;6143919;23;20646;-88
2022/02/26 17:48:42;;;;;;;10.37;3.07;;;;;;;;;;6143628;23;20227;-87
2022/02/26 17:51:48;;;;;;;10.17;2.87;;;;;;;;;;6160344;23;20233;-88
2022/02/26 17:54:53;;;;;;;9.90;3.13;;;;;;;;;;6143072;23;20200;-88
2022/02/26 17:58:01;;;;;;;14.50;2.77;;;;;;;;;;6144125;23;20537;-88
2022/02/26 18:01:06;;;;;;;8.87;2.13;;;;;;;;;;6144615;23;20449;-88
2022/02/26 18:04:11;;;;;;;11.43;2.40;;;;;;;;;;6144959;23;20200;-86
2022/02/26 18:07:17;;;;;;;12.73;3.40;;;;;;;;;;6149061;23;20180;-88
2022/02/26 18:10:22;;;;;;;13.23;3.20;;;;;;;;;;6166276;23;20228;-87
2022/02/26 18:13:29;;;;;;;10.53;2.30;;;;;;;;;;6148224;23;20401;-87
2022/02/26 18:16:35;;;;;;;13.23;3.30;;;;;;;;;;6144475;23;20180;-88
2022/02/26 18:19:41;;;;;;;16.83;4.83;;;;;;;;;;6144194;23;20495;-88
2022/02/26 18:22:47;;;;;;;8.07;2.77;;;;;;;;;;6144771;23;20216;-88
2022/02/26 18:25:54;;;;;;;6.23;2.10;;;;;;;;;;6142917;23;20420;-87
2022/02/26 18:29:01;;;;;;;11.67;2.50;;;;;;;;;;6143842;23;20212;-88
2022/02/26 18:32:07;;;;;;;8.80;2.90;;;;;;;;;;6144046;23;20180;-88
2022/02/26 18:35:12;;;;;;;14.33;3.00;;;;;;;;;;6143010;23;20265;-88